createdAt,value
2023-04-27T00:00:20.638Z,0.83
2023-04-27T00:01:20.633Z,0.89
2023-04-27T00:02:20.703Z,0.91
2023-04-27T00:03:20.764Z,0.87
2023-04-27T00:04:20.693Z,0.83
2023-04-27T00:05:20.638Z,0.79
2023-04-27T00:06:20.756Z,0.77
2023-04-27T00:07:20.591Z,0.75
2023-04-27T00:08:20.581Z,0.70
2023-04-27T00:09:20.555Z,0.69
2023-04-27T00:10:20.549Z,0.65
2023-04-27T00:11:20.537Z,0.65
2023-04-27T00:12:20.673Z,0.68
2023-04-27T00:13:20.525Z,0.66
2023-04-27T00:14:20.521Z,0.71
2023-04-27T00:15:20.512Z,0.73
2023-04-27T00:16:20.534Z,0.70
2023-04-27T00:17:20.611Z,0.68
2023-04-27T00:18:20.572Z,0.68
2023-04-27T00:19:20.615Z,0.67
2023-04-27T00:20:20.648Z,0.67
2023-04-27T00:21:20.666Z,0.71
2023-04-27T00:22:20.706Z,0.70
2023-04-27T00:23:20.737Z,0.69
2023-04-27T00:24:20.768Z,0.69
2023-04-27T00:25:20.803Z,0.70
2023-04-27T00:26:20.822Z,0.70
2023-04-27T00:27:20.878Z,0.68
2023-04-27T00:28:20.901Z,0.76
2023-04-27T00:29:20.939Z,0.78
2023-04-27T00:30:20.989Z,0.75
2023-04-27T00:31:21.113Z,0.76
2023-04-27T00:32:21.109Z,0.78
2023-04-27T00:33:21.115Z,0.78
2023-04-27T00:34:21.137Z,0.77
2023-04-27T00:35:21.169Z,0.89
2023-04-27T00:36:21.233Z,0.83
2023-04-27T00:37:21.235Z,0.77
2023-04-27T00:38:21.317Z,0.80
2023-04-27T00:39:21.320Z,0.77
2023-04-27T00:40:21.354Z,0.77
2023-04-27T00:41:21.370Z,0.76
2023-04-27T00:42:21.410Z,0.78
2023-04-27T00:43:21.435Z,0.77
2023-04-27T00:44:21.502Z,0.80
2023-04-27T00:45:21.553Z,0.81
2023-04-27T00:46:21.664Z,0.84
2023-04-27T00:47:21.685Z,0.92
2023-04-27T00:48:21.651Z,0.94
2023-04-27T00:49:21.692Z,1.00
2023-04-27T00:50:21.729Z,0.97
2023-04-27T00:51:21.756Z,0.99
2023-04-27T00:52:21.867Z,0.95
2023-04-27T00:53:21.830Z,0.88
2023-04-27T00:54:21.872Z,0.90
2023-04-27T00:55:21.908Z,0.91
2023-04-27T00:56:21.935Z,0.88
2023-04-27T00:57:21.990Z,0.87
2023-04-27T00:58:22.033Z,0.84
2023-04-27T00:59:22.074Z,0.90
2023-04-27T01:00:22.100Z,0.89
2023-04-27T01:01:22.154Z,0.93
2023-04-27T01:02:22.250Z,0.92
2023-04-27T01:03:22.317Z,0.85
2023-04-27T01:04:22.265Z,0.89
2023-04-27T01:05:22.226Z,0.87
2023-04-27T01:06:22.274Z,0.82
2023-04-27T01:07:22.306Z,0.79
2023-04-27T01:08:22.354Z,0.86
2023-04-27T01:09:22.376Z,0.79
2023-04-27T01:10:22.398Z,0.79
2023-04-27T01:11:22.441Z,0.78
2023-04-27T01:12:22.484Z,0.76
2023-04-27T01:13:22.493Z,0.76
2023-04-27T01:14:22.515Z,0.77
2023-04-27T01:15:22.583Z,0.85
2023-04-27T01:16:22.583Z,0.89
2023-04-27T01:17:22.653Z,0.81
2023-04-27T01:18:22.647Z,0.82
2023-04-27T01:19:22.693Z,0.93
2023-04-27T01:20:22.774Z,0.91
2023-04-27T01:21:22.782Z,0.97
2023-04-27T01:22:22.806Z,0.91
2023-04-27T01:23:22.829Z,0.87
2023-04-27T01:24:22.861Z,0.82
2023-04-27T01:25:22.915Z,0.86
2023-04-27T01:26:22.938Z,0.90
2023-04-27T01:27:23.017Z,0.90
2023-04-27T01:28:23.028Z,0.87
2023-04-27T01:29:23.039Z,0.87
2023-04-27T01:30:23.085Z,0.89
2023-04-27T01:31:23.131Z,0.87
2023-04-27T01:32:23.147Z,0.87
2023-04-27T01:33:23.161Z,0.81
2023-04-27T01:34:23.219Z,0.79
2023-04-27T01:35:23.252Z,0.78
2023-04-27T01:36:23.300Z,0.77
2023-04-27T01:37:23.306Z,0.79
2023-04-27T01:38:23.352Z,0.85
2023-04-27T01:39:23.389Z,0.88
2023-04-27T01:40:23.413Z,0.89
2023-04-27T01:41:23.446Z,0.90
2023-04-27T01:42:23.488Z,1.00
2023-04-27T01:43:23.510Z,1.00
2023-04-27T01:44:23.599Z,1.02
2023-04-27T01:45:23.597Z,1.03
2023-04-27T01:46:23.673Z,1.03
2023-04-27T01:47:23.695Z,1.08
2023-04-27T01:48:23.664Z,1.12
2023-04-27T01:49:23.716Z,1.06
2023-04-27T01:50:23.743Z,1.08
2023-04-27T01:51:23.764Z,1.08
2023-04-27T01:52:23.835Z,1.08
2023-04-27T01:53:23.836Z,0.99
2023-04-27T01:54:23.871Z,1.06
2023-04-27T01:55:23.930Z,1.04
2023-04-27T01:56:23.959Z,1.08
2023-04-27T01:57:23.980Z,1.03
2023-04-27T01:58:24.015Z,0.97
2023-04-27T01:59:24.081Z,1.02
2023-04-27T02:00:24.081Z,1.01
2023-04-27T02:01:24.135Z,0.98
2023-04-27T02:02:24.198Z,0.97
2023-04-27T02:03:24.298Z,0.97
2023-04-27T02:04:24.268Z,0.95
2023-04-27T02:05:24.261Z,0.89
2023-04-27T02:06:24.233Z,0.94
2023-04-27T02:07:24.264Z,0.94
2023-04-27T02:08:24.274Z,0.94
2023-04-27T02:09:24.317Z,0.91
2023-04-27T02:10:24.396Z,0.92
2023-04-27T02:11:24.388Z,0.82
2023-04-27T02:12:24.432Z,0.87
2023-04-27T02:13:24.494Z,0.90
2023-04-27T02:14:24.501Z,0.87
2023-04-27T02:15:24.520Z,0.93
2023-04-27T02:16:24.602Z,0.91
2023-04-27T02:17:24.649Z,0.98
2023-04-27T02:18:24.606Z,1.08
2023-04-27T02:19:24.635Z,1.10
2023-04-27T02:20:24.676Z,1.19
2023-04-27T02:21:24.695Z,1.39
2023-04-27T02:22:24.748Z,1.89
2023-04-27T02:23:24.791Z,2.46
2023-04-27T02:24:24.818Z,2.40
2023-04-27T02:25:24.856Z,2.07
2023-04-27T02:26:24.879Z,2.03
2023-04-27T02:27:24.918Z,1.82
2023-04-27T02:28:24.934Z,1.88
2023-04-27T02:29:24.954Z,2.39
2023-04-27T02:30:24.996Z,2.89
2023-04-27T02:31:25.059Z,2.49
2023-04-27T02:32:25.098Z,1.99
2023-04-27T02:33:25.087Z,1.77
2023-04-27T02:34:25.111Z,1.63
2023-04-27T02:35:25.139Z,1.70
2023-04-27T02:36:25.194Z,1.58
2023-04-27T02:37:25.228Z,1.55
2023-04-27T02:38:25.235Z,1.55
2023-04-27T02:39:25.240Z,1.65
2023-04-27T02:40:25.280Z,1.81
2023-04-27T02:41:25.310Z,1.87
2023-04-27T02:42:25.377Z,1.82
2023-04-27T02:43:25.390Z,1.73
2023-04-27T02:44:25.416Z,2.01
2023-04-27T02:45:25.479Z,2.17
2023-04-27T02:46:25.508Z,2.03
2023-04-27T02:47:25.556Z,1.79
2023-04-27T02:48:25.548Z,1.73
2023-04-27T02:49:25.574Z,1.70
2023-04-27T02:50:25.624Z,1.67
2023-04-27T02:51:25.648Z,1.68
2023-04-27T02:52:25.670Z,1.68
2023-04-27T02:53:25.671Z,1.76
2023-04-27T02:54:25.744Z,1.78
2023-04-27T02:55:25.782Z,1.68
2023-04-27T02:56:25.802Z,1.66
2023-04-27T02:57:25.854Z,1.64
2023-04-27T02:58:25.866Z,1.64
2023-04-27T02:59:25.886Z,1.56
2023-04-27T03:00:25.932Z,1.59
2023-04-27T03:01:26.017Z,1.52
2023-04-27T03:02:26.048Z,1.49
2023-04-27T03:03:26.116Z,1.43
2023-04-27T03:04:26.107Z,1.50
2023-04-27T03:05:26.088Z,1.52
2023-04-27T03:06:26.092Z,1.66
2023-04-27T03:07:26.154Z,1.71
2023-04-27T03:08:26.217Z,1.84
2023-04-27T03:09:26.220Z,1.84
2023-04-27T03:10:26.263Z,1.87
2023-04-27T03:11:26.284Z,1.90
2023-04-27T03:12:26.338Z,1.94
2023-04-27T03:13:26.349Z,1.88
2023-04-27T03:14:26.385Z,1.76
2023-04-27T03:15:26.389Z,1.77
2023-04-27T03:16:26.471Z,1.67
2023-04-27T03:17:26.538Z,1.76
2023-04-27T03:18:26.500Z,1.67
2023-04-27T03:19:26.534Z,1.69
2023-04-27T03:20:26.605Z,1.71
2023-04-27T03:21:26.618Z,1.79
2023-04-27T03:22:26.692Z,1.73
2023-04-27T03:23:26.717Z,1.64
2023-04-27T03:24:26.755Z,1.71
2023-04-27T03:25:26.798Z,2.03
2023-04-27T03:26:26.837Z,2.50
2023-04-27T03:27:26.907Z,2.50
2023-04-27T03:28:26.947Z,2.44
2023-04-27T03:29:26.986Z,2.29
2023-04-27T03:30:27.007Z,2.54
2023-04-27T03:31:27.120Z,3.73
2023-04-27T03:32:27.148Z,5.13
2023-04-27T03:33:27.107Z,5.88
2023-04-27T03:34:27.121Z,4.80
2023-04-27T03:35:27.142Z,3.86
2023-04-27T03:36:27.172Z,3.11
2023-04-27T03:37:27.216Z,2.78
2023-04-27T03:38:27.232Z,2.55
2023-04-27T03:39:27.242Z,2.59
2023-04-27T03:40:27.269Z,2.96
2023-04-27T03:41:27.316Z,3.36
2023-04-27T03:42:27.369Z,3.74
2023-04-27T03:43:27.404Z,3.37
2023-04-27T03:44:27.410Z,2.76
2023-04-27T03:45:27.408Z,2.58
2023-04-27T03:46:27.634Z,2.49
2023-04-27T03:47:27.497Z,2.58
2023-04-27T03:48:27.508Z,2.79
2023-04-27T03:49:27.583Z,2.99
2023-04-27T03:50:29.586Z,3.19
2023-04-27T03:51:27.794Z,3.30
2023-04-27T03:52:27.828Z,3.33
2023-04-27T03:53:27.854Z,3.32
2023-04-27T03:54:27.856Z,3.21
2023-04-27T03:55:27.889Z,3.41
2023-04-27T03:56:27.936Z,3.82
2023-04-27T03:57:27.980Z,4.35
2023-04-27T03:58:28.018Z,4.74
2023-04-27T03:59:28.013Z,4.57
2023-04-27T04:00:28.048Z,4.33
2023-04-27T04:01:28.075Z,4.09
2023-04-27T04:02:28.285Z,3.93
2023-04-27T04:03:28.421Z,3.77
2023-04-27T04:04:28.335Z,3.79
2023-04-27T04:05:28.274Z,3.75
2023-04-27T04:06:28.310Z,3.51
2023-04-27T04:07:28.330Z,3.27
2023-04-27T04:08:28.339Z,3.20
2023-04-27T04:09:28.391Z,3.06
2023-04-27T04:10:28.449Z,2.97
2023-04-27T04:11:28.485Z,3.12
2023-04-27T04:12:28.620Z,3.12
2023-04-27T04:13:28.510Z,3.00
2023-04-27T04:14:28.538Z,2.93
2023-04-27T04:15:28.559Z,3.00
2023-04-27T04:16:28.656Z,2.99
2023-04-27T04:17:28.680Z,2.94
2023-04-27T04:18:28.675Z,2.96
2023-04-27T04:19:28.723Z,2.94
2023-04-27T04:20:28.772Z,3.08
2023-04-27T04:21:28.784Z,2.91
2023-04-27T04:22:28.830Z,3.03
2023-04-27T04:23:28.859Z,3.11
2023-04-27T04:24:28.892Z,2.97
2023-04-27T04:25:28.916Z,2.82
2023-04-27T04:26:28.944Z,2.95
2023-04-27T04:27:29.000Z,2.91
2023-04-27T04:28:29.025Z,2.82
2023-04-27T04:29:29.047Z,2.82
2023-04-27T04:30:29.090Z,2.70
2023-04-27T04:31:29.173Z,2.69
2023-04-27T04:32:29.223Z,2.69
2023-04-27T04:33:29.196Z,2.87
2023-04-27T04:34:29.249Z,3.13
2023-04-27T04:35:29.232Z,3.26
2023-04-27T04:36:29.294Z,3.48
2023-04-27T04:37:29.340Z,4.01
2023-04-27T04:38:29.366Z,4.60
2023-04-27T04:39:29.393Z,5.16
2023-04-27T04:40:29.419Z,5.71
2023-04-27T04:41:29.454Z,6.33
2023-04-27T04:42:29.482Z,6.76
2023-04-27T04:43:29.501Z,7.29
2023-04-27T04:44:29.508Z,7.45
2023-04-27T04:45:29.550Z,7.31
2023-04-27T04:46:29.591Z,7.42
2023-04-27T04:47:29.643Z,7.47
2023-04-27T04:48:29.682Z,7.53
2023-04-27T04:49:29.679Z,7.67
2023-04-27T04:50:29.699Z,7.52
2023-04-27T04:51:29.736Z,8.43
2023-04-27T04:52:29.774Z,9.77
2023-04-27T04:53:29.777Z,12.44
2023-04-27T04:54:29.822Z,14.67
2023-04-27T04:55:29.881Z,15.09
2023-04-27T04:56:29.906Z,16.30
2023-04-27T04:57:29.965Z,16.38
2023-04-27T04:58:29.988Z,14.62
2023-04-27T04:59:31.970Z,11.89
2023-04-27T05:00:30.078Z,9.88
2023-04-27T05:01:30.125Z,8.75
2023-04-27T05:02:30.248Z,7.89
2023-04-27T05:03:30.311Z,7.39
2023-04-27T05:04:30.290Z,7.16
2023-04-27T05:05:30.244Z,6.80
2023-04-27T05:06:30.274Z,6.33
2023-04-27T05:07:30.369Z,6.22
2023-04-27T05:08:30.400Z,6.34
2023-04-27T05:09:30.419Z,6.21
2023-04-27T05:10:30.469Z,6.01
2023-04-27T05:11:30.460Z,5.93
2023-04-27T05:12:30.515Z,6.45
2023-04-27T05:13:30.548Z,6.39
2023-04-27T05:14:30.596Z,6.25
2023-04-27T05:15:30.629Z,5.73
2023-04-27T05:16:30.764Z,6.01
2023-04-27T05:17:30.840Z,6.44
2023-04-27T05:18:30.769Z,7.06
2023-04-27T05:19:30.802Z,7.86
2023-04-27T05:20:30.865Z,8.34
2023-04-27T05:21:30.845Z,8.27
2023-04-27T05:22:30.896Z,8.74
2023-04-27T05:23:30.918Z,8.89
2023-04-27T05:24:30.954Z,8.83
2023-04-27T05:25:31.001Z,8.89
2023-04-27T05:26:31.016Z,9.20
2023-04-27T05:27:31.041Z,10.36
2023-04-27T05:28:31.059Z,13.15
2023-04-27T05:29:31.108Z,15.71
2023-04-27T05:30:31.142Z,18.93
2023-04-27T05:31:31.178Z,22.04
2023-04-27T05:32:31.274Z,25.45
2023-04-27T05:33:31.201Z,28.78
2023-04-27T05:34:31.208Z,28.91
2023-04-27T05:35:31.221Z,30.76
2023-04-27T05:36:31.258Z,33.27
2023-04-27T05:37:31.788Z,35.76
2023-04-27T05:38:31.304Z,37.02
2023-04-27T05:39:31.354Z,43.81
2023-04-27T05:40:31.781Z,48.04
2023-04-27T05:41:31.354Z,49.42
2023-04-27T05:42:31.800Z,48.79
2023-04-27T05:43:31.423Z,45.99
2023-04-27T05:44:31.459Z,42.68
2023-04-27T05:45:31.590Z,40.76
2023-04-27T05:46:31.561Z,41.19
2023-04-27T05:47:31.672Z,40.46
2023-04-27T05:48:31.650Z,39.28
2023-04-27T05:49:31.733Z,38.93
2023-04-27T05:50:31.779Z,41.64
2023-04-27T05:51:31.759Z,46.44
2023-04-27T05:52:31.767Z,48.25
2023-04-27T05:53:31.822Z,47.08
2023-04-27T05:54:31.882Z,48.25
2023-04-27T05:55:31.935Z,48.34
2023-04-27T05:56:31.953Z,46.91
2023-04-27T05:57:31.996Z,49.32
2023-04-27T05:58:32.032Z,47.81
2023-04-27T05:59:32.084Z,46.41
2023-04-27T06:00:32.122Z,46.51
2023-04-27T06:01:32.161Z,48.07
2023-04-27T06:02:32.421Z,51.44
2023-04-27T06:03:32.330Z,49.16
2023-04-27T06:04:32.342Z,46.09
2023-04-27T06:05:32.433Z,43.76
2023-04-27T06:06:32.301Z,44.05
2023-04-27T06:07:32.799Z,41.82
2023-04-27T06:08:32.364Z,39.82
2023-04-27T06:09:32.405Z,39.19
2023-04-27T06:10:32.445Z,38.01
2023-04-27T06:11:32.474Z,37.27
2023-04-27T06:12:32.593Z,36.72
2023-04-27T06:13:32.574Z,35.85
2023-04-27T06:14:32.622Z,35.46
2023-04-27T06:15:32.759Z,35.99
2023-04-27T06:16:32.752Z,35.84
2023-04-27T06:17:32.862Z,38.40
2023-04-27T06:18:32.822Z,38.46
2023-04-27T06:19:32.819Z,37.27
2023-04-27T06:20:32.833Z,38.15
2023-04-27T06:21:32.858Z,37.10
2023-04-27T06:22:32.925Z,36.74
2023-04-27T06:23:32.950Z,36.34
2023-04-27T06:24:32.947Z,35.09
2023-04-27T06:25:33.050Z,33.00
2023-04-27T06:26:33.037Z,34.58
2023-04-27T06:27:33.122Z,32.35
2023-04-27T06:28:33.125Z,29.84
2023-04-27T06:29:33.167Z,28.60
2023-04-27T06:30:33.287Z,28.26
2023-04-27T06:31:33.337Z,31.17
2023-04-27T06:32:33.409Z,37.83
2023-04-27T06:33:33.388Z,40.28
2023-04-27T06:34:33.403Z,49.52
2023-04-27T06:35:33.824Z,35.54
2023-04-27T06:36:33.441Z,24.26
2023-04-27T06:37:33.808Z,21.30
2023-04-27T06:38:33.518Z,20.31
2023-04-27T06:39:33.463Z,18.24
2023-04-27T06:40:33.487Z,16.96
2023-04-27T06:41:33.521Z,16.44
2023-04-27T06:42:33.798Z,15.10
2023-04-27T06:43:33.565Z,14.49
2023-04-27T06:44:33.609Z,14.04
2023-04-27T06:45:33.672Z,13.73
2023-04-27T06:46:33.713Z,13.84
2023-04-27T06:47:33.788Z,13.71
2023-04-27T06:48:33.662Z,13.65
2023-04-27T06:49:33.697Z,12.91
2023-04-27T06:50:33.744Z,12.10
2023-04-27T06:51:33.719Z,11.25
2023-04-27T06:52:33.821Z,10.94
2023-04-27T06:53:34.058Z,10.72
2023-04-27T06:54:33.865Z,10.87
2023-04-27T06:55:33.882Z,10.38
2023-04-27T06:56:33.947Z,10.19
2023-04-27T06:57:33.980Z,10.23
2023-04-27T06:58:34.060Z,9.89
2023-04-27T06:59:34.102Z,9.94
2023-04-27T07:00:34.323Z,9.97
2023-04-27T07:01:34.262Z,9.92
2023-04-27T07:02:34.256Z,9.63
2023-04-27T07:03:34.358Z,9.33
2023-04-27T07:04:34.323Z,9.12
2023-04-27T07:05:34.258Z,9.16
2023-04-27T07:06:34.325Z,9.52
2023-04-27T07:07:34.427Z,9.64
2023-04-27T07:08:35.009Z,9.82
2023-04-27T07:09:34.490Z,9.76
2023-04-27T07:10:34.457Z,9.45
2023-04-27T07:11:34.512Z,9.60
2023-04-27T07:12:34.544Z,9.87
2023-04-27T07:13:34.586Z,10.42
2023-04-27T07:14:34.640Z,10.66
2023-04-27T07:15:34.697Z,10.27
2023-04-27T07:16:34.772Z,9.83
2023-04-27T07:17:34.798Z,9.94
2023-04-27T07:18:34.821Z,10.09
2023-04-27T07:19:34.812Z,10.13
2023-04-27T07:20:34.827Z,10.55
2023-04-27T07:21:34.860Z,10.74
2023-04-27T07:22:34.916Z,11.15
2023-04-27T07:23:35.300Z,11.06
2023-04-27T07:24:34.928Z,11.27
2023-04-27T07:25:34.944Z,10.83
2023-04-27T07:26:34.961Z,11.98
2023-04-27T07:27:34.974Z,14.03
2023-04-27T07:28:35.320Z,15.88
2023-04-27T07:29:35.038Z,15.52
2023-04-27T07:30:35.086Z,14.32
2023-04-27T07:31:35.192Z,12.92
2023-04-27T07:32:35.280Z,10.99
2023-04-27T07:33:35.206Z,11.52
2023-04-27T07:34:48.966Z,15.23
2023-04-27T07:35:36.233Z,15.32
2023-04-27T07:36:35.215Z,16.18
2023-04-27T07:37:35.219Z,17.98
2023-04-27T07:38:35.240Z,20.70
2023-04-27T07:39:35.189Z,23.34
2023-04-27T07:40:35.217Z,23.54
2023-04-27T07:41:35.191Z,23.62
2023-04-27T07:42:35.173Z,25.06
2023-04-27T07:43:35.163Z,24.72
2023-04-27T07:44:35.176Z,27.88
2023-04-27T07:45:35.206Z,30.30
2023-04-27T07:46:35.168Z,32.87
2023-04-27T07:47:35.187Z,33.47
2023-04-27T07:48:35.154Z,36.86
2023-04-27T07:49:35.139Z,36.87
2023-04-27T07:50:35.119Z,39.22
2023-04-27T07:51:35.123Z,39.15
2023-04-27T07:52:35.141Z,38.01
2023-04-27T07:53:35.205Z,38.14
2023-04-27T07:54:35.234Z,38.42
2023-04-27T07:55:35.248Z,38.09
2023-04-27T07:56:35.290Z,38.27
2023-04-27T07:57:35.336Z,38.45
2023-04-27T07:58:35.331Z,30.36
2023-04-27T07:59:35.363Z,21.61
2023-04-27T08:00:35.443Z,24.24
2023-04-27T08:01:35.490Z,25.90
2023-04-27T08:02:35.797Z,29.10
2023-04-27T08:03:35.967Z,30.96
2023-04-27T08:04:35.947Z,28.49
2023-04-27T08:05:36.046Z,27.69
2023-04-27T08:06:36.246Z,27.62
2023-04-27T08:07:38.374Z,26.45
2023-04-27T08:08:36.816Z,26.54
2023-04-27T08:09:35.587Z,27.03
2023-04-27T08:10:35.563Z,28.51
2023-04-27T08:11:35.545Z,31.28
2023-04-27T08:12:35.529Z,35.07
2023-04-27T08:13:35.573Z,36.22
2023-04-27T08:14:35.540Z,37.31
2023-04-27T08:15:35.509Z,34.19
2023-04-27T08:16:35.586Z,34.41
2023-04-27T08:17:35.689Z,35.33
2023-04-27T08:18:35.551Z,36.99
2023-04-27T08:19:35.492Z,35.57
2023-04-27T08:20:35.487Z,36.11
2023-04-27T08:21:35.494Z,24.26
2023-04-27T08:22:35.663Z,19.55
2023-04-27T08:23:35.524Z,17.32
2023-04-27T08:24:35.519Z,20.90
2023-04-27T08:25:35.583Z,20.70
2023-04-27T08:26:35.618Z,24.09
2023-04-27T08:27:35.656Z,25.19
2023-04-27T08:28:35.700Z,28.65
2023-04-27T08:29:35.755Z,30.18
2023-04-27T08:30:35.741Z,29.26
2023-04-27T08:31:35.843Z,26.27
2023-04-27T08:32:35.845Z,27.41
2023-04-27T08:33:35.839Z,28.43
2023-04-27T08:34:35.893Z,28.52
2023-04-27T08:35:35.920Z,28.92
2023-04-27T08:36:35.974Z,32.53
2023-04-27T08:37:36.002Z,35.92
2023-04-27T08:38:36.026Z,31.93
2023-04-27T08:39:36.084Z,31.30
2023-04-27T08:40:36.154Z,24.43
2023-04-27T08:41:36.339Z,16.41
2023-04-27T08:42:36.201Z,13.55
2023-04-27T08:43:36.265Z,11.82
2023-04-27T08:44:36.306Z,9.64
2023-04-27T08:45:36.335Z,8.53
2023-04-27T08:46:36.404Z,7.55
2023-04-27T08:47:43.374Z,6.88
2023-04-27T08:48:37.370Z,6.68
2023-04-27T08:49:36.352Z,6.07
2023-04-27T08:50:36.341Z,6.11
2023-04-27T08:51:36.334Z,5.48
2023-04-27T08:52:36.338Z,5.26
2023-04-27T08:53:36.364Z,4.97
2023-04-27T08:54:36.321Z,5.07
2023-04-27T08:55:36.335Z,6.21
2023-04-27T08:56:36.313Z,5.57
2023-04-27T08:57:36.290Z,6.32
2023-04-27T08:58:36.362Z,7.75
2023-04-27T08:59:36.270Z,6.46
2023-04-27T09:00:36.308Z,5.98
2023-04-27T09:01:36.341Z,5.48
2023-04-27T09:02:36.469Z,6.79
2023-04-27T09:03:36.546Z,7.63
2023-04-27T09:04:36.520Z,6.73
2023-04-27T09:05:36.496Z,8.55
2023-04-27T09:06:36.515Z,7.67
2023-04-27T09:07:36.536Z,7.52
2023-04-27T09:08:36.590Z,7.70
2023-04-27T09:09:36.604Z,8.94
2023-04-27T09:10:36.609Z,6.82
2023-04-27T09:11:36.642Z,6.77
2023-04-27T09:12:36.661Z,5.73
2023-04-27T09:13:36.689Z,5.29
2023-04-27T09:14:36.731Z,5.26
2023-04-27T09:15:36.777Z,7.59
2023-04-27T09:16:36.910Z,7.01
2023-04-27T09:17:36.907Z,4.57
2023-04-27T09:18:36.917Z,3.79
2023-04-27T09:19:36.957Z,3.89
2023-04-27T09:20:36.998Z,3.88
2023-04-27T09:21:37.070Z,2.97
2023-04-27T09:22:37.086Z,2.59
2023-04-27T09:23:37.118Z,2.40
2023-04-27T09:24:37.277Z,3.24
2023-04-27T09:25:37.157Z,3.28
2023-04-27T09:26:37.204Z,3.86
2023-04-27T09:27:37.232Z,4.23
2023-04-27T09:28:37.363Z,5.81
2023-04-27T09:29:37.425Z,4.68
2023-04-27T09:30:37.348Z,4.10
2023-04-27T09:31:38.014Z,3.66
2023-04-27T09:32:37.414Z,4.32
2023-04-27T09:33:37.413Z,3.73
2023-04-27T09:34:37.468Z,2.31
2023-04-27T09:35:37.509Z,2.52
2023-04-27T09:36:37.875Z,1.95
2023-04-27T09:37:37.565Z,2.36
2023-04-27T09:38:37.579Z,2.70
2023-04-27T09:39:37.678Z,1.73
2023-04-27T09:40:37.639Z,1.55
2023-04-27T09:41:37.859Z,1.40
2023-04-27T09:42:37.694Z,1.34
2023-04-27T09:43:37.728Z,1.17
2023-04-27T09:44:37.791Z,1.24
2023-04-27T09:45:37.842Z,1.34
2023-04-27T09:46:37.852Z,2.07
2023-04-27T09:47:37.900Z,3.40
2023-04-27T09:48:37.972Z,5.40
2023-04-27T09:49:37.917Z,6.30
2023-04-27T09:50:38.294Z,7.60
2023-04-27T09:51:38.363Z,7.98
2023-04-27T09:52:37.977Z,7.67
2023-04-27T09:53:37.989Z,7.74
2023-04-27T09:54:38.015Z,7.57
2023-04-27T09:55:38.027Z,7.03
2023-04-27T09:56:38.393Z,7.16
2023-04-27T09:57:38.087Z,7.05
2023-04-27T09:58:38.108Z,7.21
2023-04-27T09:59:38.378Z,7.55
2023-04-27T10:00:38.140Z,8.12
2023-04-27T10:01:38.217Z,8.14
2023-04-27T10:02:52.184Z,8.75
2023-04-27T10:03:39.335Z,8.76
2023-04-27T10:04:38.306Z,8.83
2023-04-27T10:05:38.222Z,8.99
2023-04-27T10:06:38.227Z,9.78
2023-04-27T10:07:38.193Z,10.77
2023-04-27T10:08:38.215Z,11.18
2023-04-27T10:09:38.185Z,11.14
2023-04-27T10:10:38.196Z,10.76
2023-04-27T10:11:38.176Z,11.11
2023-04-27T10:12:38.194Z,10.80
2023-04-27T10:13:38.193Z,11.12
2023-04-27T10:14:38.154Z,11.48
2023-04-27T10:15:38.187Z,11.20
2023-04-27T10:16:38.249Z,11.59
2023-04-27T10:17:38.188Z,11.46
2023-04-27T10:18:38.207Z,11.47
2023-04-27T10:19:38.251Z,11.43
2023-04-27T10:20:38.788Z,11.71
2023-04-27T10:21:38.278Z,11.69
2023-04-27T10:22:38.326Z,11.73
2023-04-27T10:23:38.344Z,11.67
2023-04-27T10:24:38.367Z,11.85
2023-04-27T10:25:38.369Z,12.33
2023-04-27T10:26:39.931Z,14.68
2023-04-27T10:27:38.412Z,13.56
2023-04-27T10:28:38.415Z,11.22
2023-04-27T10:29:38.438Z,10.43
2023-04-27T10:30:38.534Z,10.77
2023-04-27T10:31:38.896Z,11.83
2023-04-27T10:32:38.493Z,12.25
2023-04-27T10:33:38.466Z,13.15
2023-04-27T10:34:38.883Z,12.48
2023-04-27T10:35:38.466Z,12.06
2023-04-27T10:36:38.489Z,11.75
2023-04-27T10:37:38.505Z,11.54
2023-04-27T10:38:38.544Z,11.91
2023-04-27T10:39:48.094Z,12.09
2023-04-27T10:40:39.590Z,12.11
2023-04-27T10:41:38.566Z,11.40
2023-04-27T10:42:38.605Z,11.32
2023-04-27T10:43:38.579Z,11.90
2023-04-27T10:44:38.550Z,11.38
2023-04-27T10:45:38.549Z,11.15
2023-04-27T10:46:38.600Z,11.56
2023-04-27T10:47:38.704Z,11.11
2023-04-27T10:48:38.508Z,11.30
2023-04-27T10:49:38.502Z,11.03
2023-04-27T10:50:38.565Z,11.06
2023-04-27T10:51:38.880Z,11.34
2023-04-27T10:52:38.663Z,11.14
2023-04-27T10:53:38.740Z,10.87
2023-04-27T10:54:38.893Z,10.64
2023-04-27T10:55:38.759Z,10.61
2023-04-27T10:56:38.884Z,10.65
2023-04-27T10:57:38.794Z,10.48
2023-04-27T10:58:48.264Z,10.43
2023-04-27T10:59:39.803Z,10.46
2023-04-27T11:00:38.788Z,10.51
2023-04-27T11:01:38.821Z,10.36
2023-04-27T11:02:38.857Z,10.12
2023-04-27T11:03:38.948Z,10.38
2023-04-27T11:04:38.792Z,10.24
2023-04-27T11:05:38.785Z,10.23
2023-04-27T11:06:38.725Z,10.35
2023-04-27T11:07:38.705Z,10.23
2023-04-27T11:08:38.719Z,10.10
2023-04-27T11:09:38.725Z,9.97
2023-04-27T11:10:38.685Z,9.87
2023-04-27T11:11:38.681Z,9.99
2023-04-27T11:12:38.699Z,10.05
2023-04-27T11:13:38.685Z,9.74
2023-04-27T11:14:38.677Z,9.69
2023-04-27T11:15:38.663Z,9.62
2023-04-27T11:16:38.988Z,9.64
2023-04-27T11:17:38.668Z,6.40
2023-04-27T11:18:38.648Z,5.41
2023-04-27T11:19:38.654Z,5.67
2023-04-27T11:20:38.709Z,6.17
2023-04-27T11:21:38.916Z,7.21
2023-04-27T11:22:38.808Z,7.64
2023-04-27T11:23:38.881Z,7.63
2023-04-27T11:24:38.885Z,8.00
2023-04-27T11:25:38.921Z,8.20
2023-04-27T11:26:38.947Z,7.95
2023-04-27T11:27:38.995Z,7.88
2023-04-27T11:28:38.995Z,7.55
2023-04-27T11:29:38.996Z,7.39
2023-04-27T11:30:39.003Z,8.45
2023-04-27T11:31:39.073Z,8.86
2023-04-27T11:32:39.073Z,9.10
2023-04-27T11:33:39.070Z,8.34
2023-04-27T11:34:39.061Z,8.24
2023-04-27T11:35:39.100Z,8.09
2023-04-27T11:36:39.123Z,8.00
2023-04-27T11:37:39.132Z,8.26
2023-04-27T11:38:39.135Z,8.37
2023-04-27T11:39:39.200Z,8.08
2023-04-27T11:40:39.246Z,8.51
2023-04-27T11:41:39.318Z,8.52
2023-04-27T11:42:39.354Z,8.49
2023-04-27T11:43:39.370Z,8.71
2023-04-27T11:44:39.419Z,8.90
2023-04-27T11:45:39.485Z,8.81
2023-04-27T11:46:39.593Z,8.79
2023-04-27T11:47:39.568Z,8.93
2023-04-27T11:48:39.623Z,9.18
2023-04-27T11:49:39.646Z,9.15
2023-04-27T11:50:39.636Z,9.37
2023-04-27T11:51:39.757Z,9.16
2023-04-27T11:52:39.730Z,9.57
2023-04-27T11:53:39.759Z,9.76
2023-04-27T11:54:39.801Z,9.86
2023-04-27T11:55:39.802Z,9.80
2023-04-27T11:56:39.834Z,9.90
2023-04-27T11:57:39.846Z,9.88
2023-04-27T11:58:39.888Z,9.27
2023-04-27T11:59:39.885Z,9.43
2023-04-27T12:00:39.922Z,9.73
2023-04-27T12:01:39.949Z,9.66
2023-04-27T12:02:40.064Z,9.71
2023-04-27T12:03:40.230Z,9.34
2023-04-27T12:04:40.174Z,9.09
2023-04-27T12:05:40.213Z,8.99
2023-04-27T12:06:40.079Z,8.43
2023-04-27T12:07:40.107Z,8.29
2023-04-27T12:08:40.134Z,7.83
2023-04-27T12:09:40.149Z,7.68
2023-04-27T12:10:40.174Z,7.19
2023-04-27T12:11:40.172Z,6.21
2023-04-27T12:12:40.201Z,6.12
2023-04-27T12:13:40.245Z,6.23
2023-04-27T12:14:40.269Z,6.27
2023-04-27T12:15:40.290Z,6.04
2023-04-27T12:16:40.354Z,5.75
2023-04-27T12:17:40.384Z,5.84
2023-04-27T12:18:40.385Z,5.43
2023-04-27T12:19:40.427Z,5.47
2023-04-27T12:20:40.457Z,5.27
2023-04-27T12:21:40.466Z,4.89
2023-04-27T12:22:40.525Z,4.75
2023-04-27T12:23:40.535Z,4.83
2023-04-27T12:24:40.574Z,4.52
2023-04-27T12:25:40.607Z,4.10
2023-04-27T12:26:40.634Z,4.21
2023-04-27T12:27:40.665Z,3.82
2023-04-27T12:28:40.708Z,4.20
2023-04-27T12:29:40.709Z,3.81
2023-04-27T12:30:40.741Z,3.75
2023-04-27T12:31:40.845Z,3.43
2023-04-27T12:32:40.815Z,3.51
2023-04-27T12:33:40.801Z,3.56
2023-04-27T12:34:40.936Z,3.58
2023-04-27T12:35:40.883Z,3.52
2023-04-27T12:36:40.908Z,3.33
2023-04-27T12:37:40.924Z,3.21
2023-04-27T12:38:40.979Z,3.40
2023-04-27T12:39:40.995Z,3.63
2023-04-27T12:40:41.041Z,3.35
2023-04-27T12:41:41.072Z,3.68
2023-04-27T12:42:41.103Z,3.55
2023-04-27T12:43:41.122Z,3.43
2023-04-27T12:44:41.130Z,3.70
2023-04-27T12:45:41.159Z,3.75
2023-04-27T12:46:41.237Z,3.41
2023-04-27T12:48:41.261Z,4.08
2023-04-27T12:49:41.231Z,3.31
2023-04-27T12:50:41.227Z,3.24
2023-04-27T12:51:41.194Z,3.14
2023-04-27T12:52:41.449Z,3.49
2023-04-27T12:53:41.203Z,2.97
2023-04-27T12:54:41.444Z,2.89
2023-04-27T12:55:41.180Z,2.84
2023-04-27T12:56:41.196Z,2.83
2023-04-27T12:57:41.156Z,2.80
2023-04-27T12:58:41.149Z,2.90
2023-04-27T12:59:41.448Z,2.73
2023-04-27T13:00:41.117Z,2.62
2023-04-27T13:01:41.206Z,2.57
2023-04-27T13:02:41.346Z,2.59
2023-04-27T13:03:41.295Z,2.58
2023-04-27T13:04:41.265Z,2.52
2023-04-27T13:05:41.212Z,2.51
2023-04-27T13:06:41.238Z,2.90
2023-04-27T13:07:41.246Z,2.90
2023-04-27T13:08:41.245Z,2.89
2023-04-27T13:09:41.274Z,3.08
2023-04-27T13:10:41.276Z,2.87
2023-04-27T13:11:41.276Z,2.91